Time;durP1;ratioP1;P1;durP2;ratioP2;P2;SDS_P1;SDS_P2;PMS_P1;PMS_P2;Temp;Humidity;BMP_temperature;BMP_pressure;BME280_temperature;BME280_humidity;BME280_pressure;Samples;Min_cycle;Max_cycle;Signal;HPM_P1;HPM_P2
2022/07/02 00:00:26;;;;;;;19.42;17.52;;;;;;;19.35;94.08;98988.06;2290844;78;20979;-83
2022/07/02 00:03:26;;;;;;;19.90;17.40;;;;;;;20.17;94.71;98991.53;2291877;78;20936;-86
2022/07/02 00:06:27;;;;;;;16.10;14.65;;;;;;;20.84;90.44;98998.27;2291659;78;21026;-82
2022/07/02 00:09:27;;;;;;;15.93;14.53;;;;;;;21.41;87.89;99006.40;2291543;78;21011;-83
2022/07/02 00:12:28;;;;;;;15.65;13.90;;;;;;;21.92;85.55;99029.68;2291428;78;20966;-82
2022/07/02 00:15:28;;;;;;;17.00;15.43;;;;;;;22.37;83.17;99056.63;2291507;78;20960;-81
2022/07/02 00:18:29;;;;;;;22.62;20.55;;;;;;;22.45;81.45;99082.52;2291656;78;20971;-83
2022/07/02 00:21:29;;;;;;;15.30;13.75;;;;;;;22.50;80.38;99089.02;2291179;78;20952;-81
2022/07/02 00:24:29;;;;;;;14.25;12.88;;;;;;;22.40;79.44;99107.52;2291804;78;20984;-82
2022/07/02 00:27:30;;;;;;;14.93;10.53;;;;;;;22.27;79.52;99126.11;2292051;78;21265;-85
2022/07/02 00:30:30;;;;;;;11.45;10.30;;;;;;;22.09;79.28;99146.15;2291364;78;20980;-81
2022/07/02 00:33:30;;;;;;;10.72;9.68;;;;;;;22.00;80.59;99151.25;2290483;78;20956;-80
2022/07/02 00:36:31;;;;;;;14.53;13.22;;;;;;;21.88;80.73;99145.84;2291156;78;20987;-79
2022/07/02 00:39:31;;;;;;;11.38;10.38;;;;;;;21.71;80.84;99141.47;2291351;78;21003;-83
2022/07/02 00:42:32;;;;;;;12.37;11.18;;;;;;;21.42;81.90;99138.72;2291392;78;20940;-81
2022/07/02 00:45:32;;;;;;;11.22;10.03;;;;;;;21.20;82.47;99152.98;2291264;78;20979;-80
2022/07/02 00:48:33;;;;;;;22.00;20.10;;;;;;;21.13;83.14;99152.73;2291335;78;20916;-81
2022/07/02 00:51:33;;;;;;;27.48;25.37;;;;;;;20.92;83.07;99162.98;2291387;78;21393;-79
2022/07/02 00:54:35;;;;;;;12.60;11.55;;;;;;;20.96;84.01;99159.80;2291229;78;20940;-81
2022/07/02 00:57:34;;;;;;;9.98;8.23;;;;;;;21.07;83.64;99159.53;2291116;78;20956;-82
2022/07/02 01:00:34;;;;;;;9.88;9.00;;;;;;;20.89;83.17;99159.53;2291077;78;20970;-80
2022/07/02 01:03:35;;;;;;;8.83;8.13;;;;;;;20.67;84.18;99137.94;2290653;78;21300;-82
2022/07/02 01:06:35;;;;;;;10.95;9.95;;;;;;;20.35;84.60;99134.69;2290274;78;20975;-82
2022/07/02 01:12:54;;;;;;;11.75;10.55;;;;;;;19.79;86.85;99133.24;2290075;77;20955;-80
2022/07/02 01:15:54;;;;;;;11.90;10.90;;;;;;;19.54;88.30;99123.15;2291191;78;20982;-84
2022/07/02 01:18:55;;;;;;;13.98;11.83;;;;;;;19.41;89.24;99126.45;2291296;78;20927;-80
2022/07/02 01:21:55;;;;;;;13.38;12.33;;;;;;;19.32;89.99;99126.63;2291459;78;20960;-81
2022/07/02 01:24:56;;;;;;;12.40;11.30;;;;;;;19.29;89.93;99129.78;2291311;78;21276;-80
2022/07/02 01:27:56;;;;;;;12.90;11.20;;;;;;;19.26;91.74;99137.33;2291276;78;20904;-81
2022/07/02 01:30:56;;;;;;;13.08;11.80;;;;;;;19.20;91.37;99133.92;2291234;78;20913;-81
2022/07/02 01:33:57;;;;;;;15.50;14.05;;;;;;;19.19;91.37;99122.92;2291352;78;20971;-81
2022/07/02 01:36:57;;;;;;;12.98;11.97;;;;;;;19.19;91.97;99116.30;2291222;78;21316;-84
2022/07/02 01:39:58;;;;;;;14.03;12.80;;;;;;;19.32;91.59;99127.08;2291250;78;20980;-81
2022/07/02 01:42:58;;;;;;;13.75;12.65;;;;;;;19.98;90.04;99121.38;2291405;78;20993;-83
2022/07/02 01:45:58;;;;;;;13.53;12.15;;;;;;;20.54;87.34;99119.25;2291598;78;21429;-84
2022/07/02 01:48:59;;;;;;;12.63;11.63;;;;;;;20.55;85.70;99120.53;2291410;78;20917;-83
2022/07/02 01:51:59;;;;;;;13.20;12.10;;;;;;;20.83;85.45;99130.50;2291702;78;20991;-83
2022/07/02 01:55:00;;;;;;;12.37;11.38;;;;;;;20.95;83.76;99145.66;2291479;78;20991;-82
2022/07/02 01:58:00;;;;;;;15.10;11.43;;;;;;;20.70;83.80;99145.81;2291219;78;21042;-81
2022/07/02 02:01:00;;;;;;;13.90;12.43;;;;;;;20.79;83.93;99145.59;2291336;78;20916;-83
2022/07/02 02:04:02;;;;;;;15.20;11.70;;;;;;;20.78;83.17;99145.17;2291365;78;20936;-82
2022/07/02 02:07:01;;;;;;;14.65;13.15;;;;;;;20.50;83.57;99148.08;2291310;78;20972;-82
2022/07/02 02:10:02;;;;;;;13.80;12.10;;;;;;;20.30;84.52;99150.69;2291048;78;21426;-81
2022/07/02 02:13:02;;;;;;;13.88;12.58;;;;;;;20.22;85.03;99139.39;2291012;78;21008;-83
2022/07/02 02:16:03;;;;;;;18.20;15.35;;;;;;;20.14;84.75;99145.77;2291953;78;20951;-83
2022/07/02 02:19:04;;;;;;;17.05;15.25;;;;;;;20.10;85.30;99154.24;2291673;78;21772;-81
2022/07/02 02:22:04;;;;;;;17.85;15.10;;;;;;;19.90;85.78;99157.28;2291066;78;21550;-81
2022/07/02 02:25:05;;;;;;;22.62;18.87;;;;;;;19.85;86.98;99152.98;2290654;78;21022;-81
2022/07/02 02:28:06;;;;;;;17.67;15.43;;;;;;;19.77;87.09;99153.59;2290777;78;21014;-82
2022/07/02 02:31:07;;;;;;;20.43;14.93;;;;;;;19.95;87.09;99159.41;2291227;78;20982;-81
2022/07/02 02:34:08;;;;;;;21.30;16.00;;;;;;;20.42;86.36;99164.61;2290878;78;20963;-81
2022/07/02 02:37:09;;;;;;;15.68;13.85;;;;;;;20.58;83.93;99164.67;2290938;78;20900;-81
2022/07/02 02:40:10;;;;;;;16.82;15.15;;;;;;;20.48;83.80;99172.42;2290682;78;21406;-83
2022/07/02 02:43:11;;;;;;;17.30;15.60;;;;;;;20.35;83.36;99182.41;2291012;78;20974;-81
2022/07/02 02:46:11;;;;;;;15.15;13.62;;;;;;;20.21;84.24;99174.75;2290620;78;21022;-81
2022/07/02 02:49:11;;;;;;;16.05;13.68;;;;;;;20.28;83.96;99188.30;2291127;78;20948;-83
2022/07/02 02:52:12;;;;;;;14.78;13.30;;;;;;;20.14;83.93;99190.83;2290827;78;20897;-80
2022/07/02 02:55:12;;;;;;;16.85;12.95;;;;;;;20.10;84.49;99201.06;2290962;78;21334;-81
2022/07/02 02:58:15;;;;;;;15.55;13.88;;;;;;;20.13;84.27;99196.58;2289924;78;20967;-79
2022/07/02 03:01:15;;;;;;;15.63;12.90;;;;;;;20.02;83.24;99195.48;2260051;78;20977;-79
2022/07/02 03:04:15;;;;;;;16.25;14.65;;;;;;;19.41;85.04;99208.52;2280975;78;20973;-80
2022/07/02 03:07:16;;;;;;;18.23;16.07;;;;;;;19.03;86.38;99210.47;2281229;78;20918;-80
2022/07/02 03:10:16;;;;;;;17.17;15.13;;;;;;;18.77;88.74;99214.85;2281152;77;20969;-80
2022/07/02 03:13:17;;;;;;;17.45;14.80;;;;;;;18.60;90.27;99205.39;2280806;78;20983;-80
2022/07/02 03:16:17;;;;;;;18.60;16.75;;;;;;;18.45;91.14;99210.00;2280517;78;21633;-80
2022/07/02 03:19:17;;;;;;;17.02;15.53;;;;;;;18.37;90.71;99216.30;2281105;78;20985;-81
2022/07/02 03:22:18;;;;;;;18.32;16.37;;;;;;;18.29;92.64;99213.75;2280792;78;20970;-79
2022/07/02 03:25:18;;;;;;;17.77;15.98;;;;;;;18.24;92.76;99217.35;2281122;78;20985;-82
2022/07/02 03:28:19;;;;;;;18.07;16.32;;;;;;;18.16;94.21;99224.02;2281205;78;21044;-82
2022/07/02 03:31:19;;;;;;;17.75;16.07;;;;;;;18.09;94.52;99224.99;2281265;78;20914;-81
2022/07/02 03:34:19;;;;;;;18.90;16.90;;;;;;;18.01;93.58;99241.38;2280952;78;21358;-83
2022/07/02 03:37:23;;;;;;;18.00;16.35;;;;;;;17.97;94.96;99240.98;2281509;78;20949;-83
2022/07/02 03:40:20;;;;;;;17.77;16.17;;;;;;;17.99;95.22;99237.88;2271158;78;21042;-82
2022/07/02 03:43:21;;;;;;;20.45;18.15;;;;;;;17.81;96.12;99235.88;2248861;79;20959;-82
2022/07/02 03:46:21;;;;;;;21.75;18.98;;;;;;;17.76;96.89;99244.30;2261649;78;21389;-83
2022/07/02 03:49:21;;;;;;;20.60;18.42;;;;;;;17.73;96.65;99256.21;2280944;78;21365;-84
2022/07/02 03:52:22;;;;;;;19.80;18.05;;;;;;;17.68;96.24;99255.83;2280396;78;21318;-82
2022/07/02 03:55:22;;;;;;;17.67;16.00;;;;;;;17.61;96.12;99256.30;2280379;78;20944;-82
2022/07/02 03:58:23;;;;;;;19.77;16.73;;;;;;;17.57;96.36;99258.98;2279776;78;20914;-82
2022/07/02 04:01:23;;;;;;;18.98;15.88;;;;;;;17.48;96.04;99266.55;2279592;78;20961;-82
2022/07/02 04:04:23;;;;;;;16.93;15.43;;;;;;;17.39;96.25;99271.47;2279608;78;21029;-82
2022/07/02 04:07:24;;;;;;;17.35;15.55;;;;;;;17.33;96.73;99274.12;2280178;78;20942;-81
2022/07/02 04:10:24;;;;;;;17.57;15.88;;;;;;;17.31;96.42;99278.98;2280896;78;21008;-83
2022/07/02 04:13:25;;;;;;;17.90;16.30;;;;;;;17.35;96.65;99280.74;2280007;78;20961;-81
2022/07/02 04:16:25;;;;;;;18.25;16.48;;;;;;;17.35;96.48;99288.66;2280593;78;21048;-83
2022/07/02 04:19:25;;;;;;;18.05;16.45;;;;;;;17.32;97.98;99298.77;2280305;78;21338;-82
2022/07/02 04:22:26;;;;;;;18.85;17.00;;;;;;;17.36;97.48;99293.05;2280262;78;20970;-83
2022/07/02 04:25:26;;;;;;;16.12;14.38;;;;;;;17.42;96.32;99304.42;2280195;78;21001;-83
2022/07/02 04:28:27;;;;;;;15.23;13.93;;;;;;;17.40;96.15;99306.65;2280007;78;21270;-82
2022/07/02 04:31:27;;;;;;;17.12;13.62;;;;;;;17.57;94.98;99316.61;2280432;78;20978;-82
2022/07/02 04:34:28;;;;;;;14.13;12.13;;;;;;;17.46;94.60;99311.88;2281053;78;20993;-82
2022/07/02 04:37:28;;;;;;;13.45;11.40;;;;;;;17.39;94.37;99311.05;2281211;78;20933;-83
2022/07/02 04:40:28;;;;;;;12.30;11.25;;;;;;;17.35;94.65;99308.45;2281454;78;21032;-82
2022/07/02 04:43:29;;;;;;;13.78;11.30;;;;;;;17.38;94.58;99307.10;2281088;78;20988;-84
2022/07/02 04:46:29;;;;;;;12.18;11.10;;;;;;;17.47;94.16;99318.91;2280783;78;20993;-82
2022/07/02 04:49:32;;;;;;;12.65;11.45;;;;;;;17.46;94.67;99327.27;2279973;78;20949;-81
2022/07/02 04:52:30;;;;;;;13.65;12.13;;;;;;;17.52;93.42;99325.02;2280867;78;20929;-82
2022/07/02 04:55:30;;;;;;;12.80;11.28;;;;;;;17.45;93.57;99331.23;2282098;78;20965;-83
2022/07/02 04:58:31;;;;;;;11.83;10.90;;;;;;;17.40;93.46;99335.23;2280250;77;20914;-80
2022/07/02 05:01:31;;;;;;;12.63;11.43;;;;;;;17.41;94.06;99344.02;2249725;78;20939;-83
2022/07/02 05:04:32;;;;;;;12.78;11.05;;;;;;;17.44;94.31;99340.04;2248676;78;20935;-84
2022/07/02 05:07:32;;;;;;;12.98;11.88;;;;;;;17.41;93.57;99349.30;2248861;78;20986;-81
2022/07/02 05:10:32;;;;;;;13.18;12.03;;;;;;;17.42;93.90;99356.33;2248625;79;20995;-82
2022/07/02 05:13:33;;;;;;;12.37;11.28;;;;;;;17.39;94.41;99364.27;2249025;79;20955;-83
2022/07/02 05:16:34;;;;;;;14.18;12.50;;;;;;;17.34;93.86;99360.75;2249612;78;20908;-85
2022/07/02 05:19:34;;;;;;;14.43;12.37;;;;;;;17.34;94.24;99371.31;2250123;78;20915;-82
2022/07/02 05:22:34;;;;;;;13.50;12.40;;;;;;;17.29;93.96;99365.19;2250062;78;20935;-83
2022/07/02 05:25:35;;;;;;;15.83;13.05;;;;;;;17.27;95.01;99371.80;2249974;78;20975;-83
2022/07/02 05:28:35;;;;;;;14.93;12.73;;;;;;;17.25;94.78;99378.84;2249677;78;20955;-83
2022/07/02 05:31:35;;;;;;;14.10;12.68;;;;;;;17.19;94.76;99377.13;2249597;78;20912;-83
2022/07/02 05:34:36;;;;;;;13.78;11.60;;;;;;;17.19;94.55;99381.52;2248812;78;21510;-81
2022/07/02 05:37:36;;;;;;;11.93;10.93;;;;;;;17.25;94.66;99392.48;2249450;78;20881;-83
2022/07/02 05:40:37;;;;;;;12.82;11.00;;;;;;;17.28;94.41;99393.78;2250299;78;21005;-84
2022/07/02 05:43:37;;;;;;;13.32;11.08;;;;;;;17.26;94.37;99399.51;2250503;78;20920;-83
2022/07/02 05:46:37;;;;;;;12.23;11.03;;;;;;;17.25;93.96;99405.23;2249007;78;21355;-83
2022/07/02 05:49:38;;;;;;;13.50;10.10;;;;;;;17.31;94.36;99408.27;2249053;78;20963;-82
2022/07/02 05:52:38;;;;;;;10.63;9.63;;;;;;;17.38;93.99;99409.58;2248610;78;21006;-83
2022/07/02 05:55:39;;;;;;;10.98;9.85;;;;;;;17.34;93.18;99428.05;2249622;79;20992;-83
2022/07/02 05:58:39;;;;;;;11.40;10.40;;;;;;;17.27;93.42;99426.33;2249647;78;20948;-82
2022/07/02 06:01:39;;;;;;;10.30;9.35;;;;;;;17.31;93.74;99424.98;2292515;78;20912;-84
2022/07/02 06:04:40;;;;;;;10.63;9.73;;;;;;;17.26;93.99;99429.41;2292123;78;20955;-85
2022/07/02 06:07:40;;;;;;;9.18;8.30;;;;;;;17.37;94.17;99441.25;2291372;78;20969;-83
2022/07/02 06:10:41;;;;;;;9.05;8.15;;;;;;;17.42;93.63;99438.14;2291105;78;21408;-82
2022/07/02 06:13:42;;;;;;;8.80;7.83;;;;;;;17.28;93.40;99442.15;2291363;78;21354;-81
2022/07/02 06:16:43;;;;;;;7.92;7.22;;;;;;;17.25;94.24;99439.53;2291690;78;20896;-81
2022/07/02 06:19:46;;;;;;;8.28;7.50;;;;;;;17.27;94.20;99444.80;2291893;78;20979;-80
2022/07/02 06:22:43;;;;;;;7.65;7.05;;;;;;;17.30;94.39;99452.25;2290565;78;20897;-81
2022/07/02 06:25:44;;;;;;;7.78;7.08;;;;;;;17.29;94.84;99446.54;2290090;78;20944;-81
2022/07/02 06:28:44;;;;;;;7.10;6.60;;;;;;;17.34;94.22;99461.02;2290091;78;20964;-81
2022/07/02 06:31:45;;;;;;;6.42;5.92;;;;;;;17.36;94.42;99465.89;2290015;78;21379;-83
2022/07/02 06:34:45;;;;;;;5.92;5.53;;;;;;;17.38;94.68;99469.39;2290386;78;20956;-82
2022/07/02 06:37:46;;;;;;;7.33;6.20;;;;;;;17.38;94.23;99466.31;2291510;78;20972;-81
2022/07/02 06:40:46;;;;;;;5.85;5.45;;;;;;;17.41;94.53;99468.05;2291336;78;20956;-81
2022/07/02 06:43:47;;;;;;;6.28;4.90;;;;;;;17.40;94.43;99474.22;2290845;78;20947;-83
2022/07/02 06:46:47;;;;;;;5.47;4.97;;;;;;;17.40;94.42;99479.50;2290709;78;20947;-82
2022/07/02 06:49:47;;;;;;;5.80;5.20;;;;;;;17.39;94.23;99481.70;2291087;78;20963;-82
2022/07/02 06:52:48;;;;;;;6.00;5.60;;;;;;;17.38;93.92;99482.59;2291526;78;20983;-82
2022/07/02 06:55:48;;;;;;;5.78;5.28;;;;;;;17.35;94.19;99487.88;2291304;78;20924;-82
2022/07/02 06:58:49;;;;;;;6.72;6.22;;;;;;;17.36;94.87;99490.95;2291277;78;20968;-82
2022/07/02 07:01:49;;;;;;;6.30;5.80;;;;;;;17.34;94.47;99495.33;2291136;78;21340;-82
2022/07/02 07:04:49;;;;;;;6.90;6.30;;;;;;;17.38;94.92;99505.02;2290611;78;20956;-80
2022/07/02 07:07:50;;;;;;;6.15;5.53;;;;;;;17.37;94.59;99504.14;2290565;78;20928;-81
2022/07/02 07:10:50;;;;;;;10.23;5.47;;;;;;;17.43;94.26;99506.75;2290222;78;20959;-82
2022/07/02 07:13:51;;;;;;;5.97;5.53;;;;;;;17.50;94.76;99513.75;2290491;78;20920;-79
2022/07/02 07:16:51;;;;;;;6.80;5.95;;;;;;;17.47;94.50;99519.05;2290434;78;20956;-84
2022/07/02 07:19:51;;;;;;;6.25;5.75;;;;;;;17.50;95.03;99520.34;2289890;78;20920;-83
2022/07/02 07:22:52;;;;;;;4.97;4.47;;;;;;;17.58;94.05;99532.62;2290337;78;20980;-81
2022/07/02 07:25:52;;;;;;;6.42;5.83;;;;;;;17.57;93.98;99537.47;2290887;78;20991;-86
2022/07/02 07:28:53;;;;;;;5.12;4.53;;;;;;;17.57;94.05;99543.63;2291069;78;21013;-81
2022/07/02 07:31:53;;;;;;;5.35;4.90;;;;;;;17.63;94.53;99545.36;2290916;78;20962;-85
2022/07/02 07:34:55;;;;;;;4.62;3.85;;;;;;;17.73;94.41;99549.28;2267150;78;21046;-86
2022/07/02 07:37:59;;;;;;;5.33;4.17;;;;;;;17.92;92.85;99554.02;2290663;78;20932;-82
2022/07/02 07:40:59;;;;;;;3.47;3.27;;;;;;;18.12;92.89;99551.23;2290500;78;20940;-81
2022/07/02 07:44:03;;;;;;;4.58;3.02;;;;;;;18.35;90.85;99541.39;2291222;78;20933;-84
2022/07/02 07:47:03;;;;;;;3.50;3.30;;;;;;;18.38;90.94;99549.29;2290757;78;21010;-82
2022/07/02 07:50:03;;;;;;;4.08;3.77;;;;;;;18.35;90.78;99553.73;2290441;78;20940;-82
2022/07/02 07:53:04;;;;;;;3.85;3.55;;;;;;;18.46;89.79;99560.67;2290573;78;20924;-82
2022/07/02 07:56:04;;;;;;;4.00;3.70;;;;;;;18.40;89.31;99562.05;2290308;78;20982;-82
2022/07/02 07:59:06;;;;;;;4.93;4.60;;;;;;;18.21;89.43;99575.42;2290017;78;21023;-80
2022/07/02 08:02:06;;;;;;;6.17;5.60;;;;;;;18.09;89.37;99567.98;2279884;78;20994;-78
2022/07/02 08:05:06;;;;;;;7.03;6.42;;;;;;;18.13;89.51;99569.72;2280711;77;21428;-80
2022/07/02 08:08:07;;;;;;;6.80;6.20;;;;;;;18.51;88.63;99559.31;2280932;77;20930;-80
2022/07/02 08:11:07;;;;;;;7.08;6.37;;;;;;;18.90;86.96;99552.80;2280656;78;21036;-79
2022/07/02 08:14:08;;;;;;;6.72;6.22;;;;;;;19.35;85.77;99559.36;2280853;78;21355;-80
2022/07/02 08:17:08;;;;;;;5.75;5.25;;;;;;;19.45;85.16;99557.48;2281434;77;20925;-80
2022/07/02 08:20:08;;;;;;;6.40;4.92;;;;;;;19.45;83.73;99556.16;2281667;77;20957;-82
2022/07/02 08:23:09;;;;;;;4.72;4.33;;;;;;;19.32;83.69;99557.20;2281686;78;21730;-80
2022/07/02 08:26:09;;;;;;;4.35;3.95;;;;;;;19.39;83.07;99564.17;2282033;77;21021;-81
2022/07/02 08:29:10;;;;;;;3.17;2.98;;;;;;;19.32;83.42;99563.82;2281777;78;20957;-81
2022/07/02 08:32:10;;;;;;;3.47;3.17;;;;;;;19.34;82.78;99560.70;2282007;78;20938;-80
2022/07/02 08:35:12;;;;;;;3.10;2.90;;;;;;;19.29;81.71;99561.20;2281129;77;21364;-80
2022/07/02 08:38:13;;;;;;;2.75;2.62;;;;;;;19.44;81.46;99553.08;2281787;77;20954;-81
2022/07/02 08:41:14;;;;;;;2.95;2.75;;;;;;;19.66;80.94;99553.25;2281779;77;21004;-81
2022/07/02 08:44:15;;;;;;;4.97;4.58;;;;;;;19.79;80.24;99566.33;2282122;77;21368;-80
2022/07/02 08:47:16;;;;;;;7.45;6.17;;;;;;;19.81;78.73;99553.94;2281812;77;20957;-81
2022/07/02 08:50:17;;;;;;;11.22;10.13;;;;;;;19.78;78.22;99556.63;2281194;77;20945;-80
2022/07/02 08:53:18;;;;;;;15.38;14.07;;;;;;;19.83;78.23;99554.34;2281492;78;20926;-80
2022/07/02 08:56:18;;;;;;;16.35;14.95;;;;;;;19.77;76.42;99563.70;2281618;78;20969;-81
2022/07/02 08:59:19;;;;;;;18.15;16.40;;;;;;;19.90;77.71;99563.08;2282436;78;20973;-80
2022/07/02 09:02:19;;;;;;;20.92;18.95;;;;;;;19.85;77.76;99567.56;2249647;78;21372;-80
2022/07/02 09:05:19;;;;;;;23.77;21.50;;;;;;;19.65;77.63;99570.49;2248840;79;20952;-80
2022/07/02 09:08:22;;;;;;;23.87;21.70;;;;;;;19.67;77.23;99564.72;2248629;78;20928;-80
2022/07/02 09:11:20;;;;;;;25.72;23.45;;;;;;;19.78;77.01;99567.23;2249458;78;20975;-80
2022/07/02 09:14:21;;;;;;;25.12;22.77;;;;;;;19.92;76.87;99570.56;2249677;78;21637;-82
2022/07/02 09:17:21;;;;;;;25.15;22.87;;;;;;;19.93;76.07;99578.93;2248834;78;21002;-81
2022/07/02 09:20:23;;;;;;;27.87;22.00;;;;;;;20.05;75.95;99584.09;2249918;78;20978;-81
2022/07/02 09:23:22;;;;;;;22.67;20.77;;;;;;;20.24;75.66;99572.75;2249624;79;20992;-81
2022/07/02 09:26:22;;;;;;;20.05;18.45;;;;;;;20.42;74.96;99573.82;2249305;78;20979;-81
2022/07/02 09:29:23;;;;;;;18.32;16.85;;;;;;;20.49;73.45;99568.84;2249842;78;20936;-82
2022/07/02 09:32:23;;;;;;;17.70;16.30;;;;;;;20.53;73.31;99585.58;2249214;78;20963;-81
2022/07/02 09:35:23;;;;;;;18.55;16.87;;;;;;;20.30;73.38;99580.61;2249644;78;20968;-82
2022/07/02 09:38:24;;;;;;;15.68;14.58;;;;;;;20.30;73.80;99585.91;2249197;78;20923;-82
2022/07/02 09:41:24;;;;;;;15.35;14.15;;;;;;;20.50;72.81;99581.65;2249430;78;20990;-81
2022/07/02 09:44:28;;;;;;;14.63;13.53;;;;;;;20.82;73.02;99576.70;2250146;79;20951;-81
2022/07/02 09:47:28;;;;;;;12.07;11.18;;;;;;;21.24;72.66;99587.44;2249806;78;20899;-81
2022/07/02 09:50:29;;;;;;;11.50;10.70;;;;;;;21.27;70.42;99591.36;2249362;79;21662;-81
2022/07/02 09:53:29;;;;;;;12.73;11.45;;;;;;;21.21;70.66;99590.13;2248998;78;20959;-81
2022/07/02 09:56:29;;;;;;;12.98;11.88;;;;;;;21.28;70.67;99588.67;2248389;78;21004;-80
2022/07/02 09:59:30;;;;;;;16.27;14.98;;;;;;;21.44;70.37;99594.55;2248432;78;20904;-82
2022/07/02 10:02:30;;;;;;;20.30;18.45;;;;;;;21.18;70.17;99600.80;2279020;78;21496;-81
2022/07/02 10:05:32;;;;;;;19.00;17.60;;;;;;;20.81;71.45;99601.92;2280660;78;20941;-80
2022/07/02 10:08:31;;;;;;;19.60;17.87;;;;;;;20.57;71.40;99606.72;2280112;78;21434;-80
2022/07/02 10:11:31;;;;;;;18.55;17.15;;;;;;;20.38;72.57;99601.25;2280745;78;20922;-81
2022/07/02 10:14:32;;;;;;;18.87;17.50;;;;;;;20.40;73.20;99605.23;2281677;78;20918;-81
2022/07/02 10:17:32;;;;;;;19.05;17.55;;;;;;;20.42;73.18;99604.31;2281647;78;20937;-82
2022/07/02 10:20:33;;;;;;;18.17;16.77;;;;;;;20.57;72.20;99603.19;2280527;78;21273;-80
2022/07/02 10:23:33;;;;;;;16.42;15.13;;;;;;;20.44;72.62;99602.52;2280401;78;20934;-80
2022/07/02 10:26:34;;;;;;;13.98;12.58;;;;;;;20.56;72.41;99607.62;2280031;78;20952;-81
2022/07/02 10:29:34;;;;;;;12.30;11.30;;;;;;;20.71;71.73;99611.79;2280004;78;20961;-80
2022/07/02 10:32:34;;;;;;;12.35;11.28;;;;;;;20.60;71.92;99613.75;2280522;78;20930;-81
2022/07/02 10:35:35;;;;;;;11.63;10.63;;;;;;;20.51;72.16;99616.09;2280822;78;21384;-80
2022/07/02 10:38:35;;;;;;;10.13;9.23;;;;;;;20.52;72.62;99613.88;2281521;78;20961;-81
2022/07/02 10:41:35;;;;;;;9.28;8.48;;;;;;;20.60;72.11;99616.40;2281325;78;20986;-81
2022/07/02 10:44:36;;;;;;;8.13;7.55;;;;;;;20.59;71.83;99619.95;2280733;78;21321;-80
2022/07/02 10:47:36;;;;;;;2.87;2.67;;;;;;;20.48;72.36;99626.75;2279961;78;20965;-81
2022/07/02 10:50:40;;;;;;;2.27;2.08;;;;;;;20.35;71.28;99626.03;2280404;77;21007;-81
2022/07/02 10:53:39;;;;;;;2.02;1.92;;;;;;;20.33;71.13;99620.33;2280155;78;21290;-81
2022/07/02 10:56:37;;;;;;;2.25;2.15;;;;;;;20.27;71.81;99623.95;2279842;78;20929;-81
2022/07/02 10:59:38;;;;;;;5.78;2.33;;;;;;;20.32;72.37;99631.84;2280206;78;20926;-80
2022/07/02 11:02:38;;;;;;;3.50;2.22;;;;;;;20.51;71.74;99633.78;2289566;77;21342;-81
2022/07/02 11:05:42;;;;;;;2.12;2.02;;;;;;;20.49;70.88;99647.52;2291117;78;20951;-80
2022/07/02 11:08:48;;;;;;;1.70;1.60;;;;;;;20.43;70.46;99632.58;2291084;78;20974;-80
2022/07/02 11:11:46;;;;;;;2.02;1.92;;;;;;;20.58;69.59;99634.11;2291100;78;21070;-80
2022/07/02 11:14:46;;;;;;;1.98;1.87;;;;;;;21.03;68.01;99631.61;2291226;78;20986;-82
2022/07/02 11:17:46;;;;;;;2.25;1.72;;;;;;;21.38;68.30;99627.00;2291804;78;20970;-83
2022/07/02 11:20:47;;;;;;;2.20;2.02;;;;;;;21.25;67.87;99627.69;2291580;78;20975;-83
2022/07/02 11:23:47;;;;;;;2.05;1.77;;;;;;;21.19;67.63;99633.08;2291797;78;20955;-83
2022/07/02 11:26:48;;;;;;;1.85;1.75;;;;;;;21.25;68.19;99627.69;2291238;78;20959;-82
2022/07/02 11:29:48;;;;;;;1.70;1.40;;;;;;;21.49;66.68;99629.87;2291513;78;20951;-84
2022/07/02 11:32:48;;;;;;;2.27;2.08;;;;;;;21.61;66.20;99627.41;2291828;78;20943;-82
2022/07/02 11:35:49;;;;;;;2.37;1.98;;;;;;;21.81;66.10;99624.38;2291920;78;20944;-82
2022/07/02 11:38:50;;;;;;;3.52;1.95;;;;;;;21.88;65.29;99635.30;2292231;78;20951;-81
2022/07/02 11:41:50;;;;;;;3.65;1.70;;;;;;;21.90;63.69;99641.00;2294110;77;21048;-81
2022/07/02 11:44:50;;;;;;;1.70;1.60;;;;;;;22.13;64.81;99630.34;2299920;77;21005;-81
2022/07/02 11:47:50;;;;;;;3.95;1.90;;;;;;;22.44;64.40;99633.17;2293373;77;20979;-82
2022/07/02 11:50:51;;;;;;;4.97;2.00;;;;;;;22.22;62.83;99636.78;2292464;78;20960;-83
2022/07/02 11:53:51;;;;;;;4.50;2.42;;;;;;;22.10;63.86;99633.95;2292435;78;20959;-81
2022/07/02 11:56:52;;;;;;;2.70;2.50;;;;;;;21.86;65.26;99636.66;2292189;78;20951;-82
2022/07/02 11:59:52;;;;;;;3.27;2.15;;;;;;;21.62;65.43;99643.78;2292168;78;21276;-82
2022/07/02 12:02:52;;;;;;;2.08;1.82;;;;;;;21.45;65.75;99652.08;2282344;78;21021;-83
2022/07/02 12:05:53;;;;;;;2.25;2.05;;;;;;;21.63;65.23;99648.19;2283074;78;20985;-82
2022/07/02 12:08:53;;;;;;;2.22;2.00;;;;;;;22.00;64.22;99650.98;2282281;78;20929;-82
2022/07/02 12:11:56;;;;;;;2.40;2.20;;;;;;;22.21;63.87;99651.87;2282401;78;21140;-81
2022/07/02 12:14:54;;;;;;;2.47;2.27;;;;;;;22.39;63.98;99654.56;2282033;77;20981;-81
2022/07/02 12:17:55;;;;;;;1.95;1.77;;;;;;;22.31;62.49;99654.31;2282940;78;20954;-82
2022/07/02 12:20:55;;;;;;;2.02;1.87;;;;;;;22.01;63.07;99663.81;2283080;78;20973;-83
2022/07/02 12:23:55;;;;;;;2.87;2.70;;;;;;;21.61;64.57;99660.63;2283072;78;20957;-83
2022/07/02 12:26:56;;;;;;;3.10;2.83;;;;;;;21.26;65.70;99660.84;2282424;78;21001;-82
2022/07/02 12:29:56;;;;;;;4.45;4.05;;;;;;;21.05;66.61;99668.29;2282088;78;20937;-82
2022/07/02 12:32:57;;;;;;;3.35;3.00;;;;;;;20.98;66.88;99665.74;2282341;78;20882;-82
2022/07/02 12:35:57;;;;;;;10.50;3.55;;;;;;;21.15;66.87;99673.86;2282660;78;20934;-82
2022/07/02 12:38:57;;;;;;;4.58;2.80;;;;;;;21.09;66.84;99666.88;2282530;78;21341;-81
2022/07/02 12:41:58;;;;;;;3.35;3.05;;;;;;;21.23;66.61;99660.03;2283061;78;21036;-83
2022/07/02 12:44:58;;;;;;;3.40;3.10;;;;;;;21.51;66.42;99666.57;2283471;78;21039;-82
2022/07/02 12:47:58;;;;;;;4.90;3.05;;;;;;;21.52;65.90;99664.34;2283012;78;20942;-83
2022/07/02 12:50:59;;;;;;;4.47;2.90;;;;;;;21.59;65.53;99667.75;2283530;77;21021;-82
2022/07/02 12:53:59;;;;;;;3.30;3.00;;;;;;;21.61;64.69;99664.16;2283411;78;20957;-83
2022/07/02 12:57:00;;;;;;;3.92;3.62;;;;;;;21.78;65.91;99668.28;2283738;77;20917;-82
2022/07/02 13:00:00;;;;;;;3.80;3.50;;;;;;;22.01;65.60;99667.35;2283506;78;20986;-83
2022/07/02 13:03:00;;;;;;;4.35;3.95;;;;;;;21.98;64.94;99666.09;2253024;78;20983;-83
2022/07/02 13:06:02;;;;;;;3.45;3.17;;;;;;;21.62;64.87;99667.23;2251042;79;20989;-83
2022/07/02 13:09:01;;;;;;;3.75;3.00;;;;;;;21.23;65.51;99670.66;2251211;79;20970;-82
2022/07/02 13:12:02;;;;;;;3.12;2.92;;;;;;;20.96;66.04;99668.88;2251027;78;20995;-82
2022/07/02 13:15:02;;;;;;;3.55;3.25;;;;;;;20.83;66.61;99671.31;2251036;79;20946;-85
2022/07/02 13:18:02;;;;;;;3.75;3.37;;;;;;;20.75;67.20;99670.53;2251309;78;20935;-83
2022/07/02 13:21:03;;;;;;;3.67;3.37;;;;;;;20.76;67.37;99662.12;2251079;78;21375;-84
2022/07/02 13:24:03;;;;;;;4.25;3.45;;;;;;;20.84;67.14;99663.77;2251246;78;20904;-84
2022/07/02 13:27:04;;;;;;;3.25;2.95;;;;;;;20.90;66.24;99654.39;2251209;78;20948;-82
2022/07/02 13:30:04;;;;;;;3.65;3.35;;;;;;;21.07;66.85;99659.84;2250501;78;20917;-84
2022/07/02 13:33:04;;;;;;;3.95;3.45;;;;;;;21.48;66.39;99661.31;2250721;78;21252;-82
2022/07/02 13:36:05;;;;;;;4.35;3.95;;;;;;;21.84;64.67;99656.20;2250634;78;20951;-83
2022/07/02 13:39:05;;;;;;;4.78;4.37;;;;;;;22.05;63.67;99653.12;2250709;78;20999;-83
2022/07/02 13:42:06;;;;;;;3.85;3.52;;;;;;;22.08;63.70;99651.72;2250484;78;21015;-84
2022/07/02 13:45:06;;;;;;;4.50;3.83;;;;;;;21.98;63.61;99652.80;2250040;78;21390;-83
2022/07/02 13:48:07;;;;;;;4.80;4.40;;;;;;;21.83;64.29;99647.35;2250259;78;21003;-83
2022/07/02 13:51:08;;;;;;;7.17;4.20;;;;;;;21.65;64.85;99645.50;2249217;78;20955;-83
2022/07/02 13:54:07;;;;;;;3.87;3.37;;;;;;;21.44;65.67;99649.00;2249267;79;20927;-83
2022/07/02 13:57:08;;;;;;;5.17;4.15;;;;;;;21.35;66.09;99645.20;2249615;78;20912;-84
2022/07/02 14:00:08;;;;;;;7.47;3.98;;;;;;;21.10;65.25;99655.81;2249682;78;20947;-83